createdAt,value
2019-01-13T00:00:26.727Z,99.60
2019-01-13T00:02:56.792Z,99.70
2019-01-13T00:05:26.420Z,99.80
2019-01-13T00:07:55.871Z,99.70
2019-01-13T00:10:25.362Z,99.80
2019-01-13T00:12:54.672Z,99.60
2019-01-13T00:15:24.149Z,99.60
2019-01-13T00:17:53.531Z,99.60
2019-01-13T00:20:22.913Z,99.50
2019-01-13T00:22:52.287Z,99.40
2019-01-13T00:25:21.803Z,99.50
2019-01-13T00:27:51.274Z,99.70
2019-01-13T00:30:20.786Z,99.30
2019-01-13T00:32:50.227Z,99.50
2019-01-13T00:35:19.670Z,99.30
2019-01-13T00:37:49.090Z,99.40
2019-01-13T00:40:19.639Z,99.10
2019-01-13T00:42:48.973Z,99.20
2019-01-13T00:45:18.479Z,99.40
2019-01-13T00:47:47.953Z,99.50
2019-01-13T00:50:17.424Z,99.50
2019-01-13T00:52:46.884Z,99.50
2019-01-13T00:55:16.623Z,99.50
2019-01-13T00:57:46.141Z,99.60
2019-01-13T01:00:26.369Z,99.60
2019-01-13T01:02:52.911Z,99.60
2019-01-13T01:05:22.423Z,99.50
2019-01-13T01:07:52.220Z,99.40
2019-01-13T01:10:22.564Z,99.60
2019-01-13T01:12:51.986Z,99.50
2019-01-13T01:15:21.293Z,99.50
2019-01-13T01:17:50.604Z,99.70
2019-01-13T01:20:19.923Z,99.40
2019-01-13T01:22:49.246Z,99.40
2019-01-13T01:25:18.719Z,99.60
2019-01-13T01:27:48.111Z,99.50
2019-01-13T01:30:18.880Z,99.50
2019-01-13T01:32:48.266Z,99.80
2019-01-13T01:35:17.931Z,99.60
2019-01-13T01:37:47.324Z,99.70
2019-01-13T01:40:18.777Z,99.60
2019-01-13T01:42:49.226Z,99.70
2019-01-13T01:45:19.858Z,99.60
2019-01-13T01:47:49.324Z,99.60
2019-01-13T01:50:18.774Z,99.50
2019-01-13T01:52:48.229Z,99.60
2019-01-13T01:55:18.425Z,99.60
2019-01-13T01:57:49.002Z,99.90
2019-01-13T02:00:22.553Z,99.70
2019-01-13T02:02:51.958Z,99.80
2019-01-13T02:05:21.305Z,99.70
2019-01-13T02:07:50.796Z,99.70
2019-01-13T02:10:20.324Z,99.80
2019-01-13T02:12:49.849Z,99.80
2019-01-13T02:15:24.273Z,99.80
2019-01-13T02:17:53.790Z,99.90
2019-01-13T02:20:23.254Z,99.90
2019-01-13T02:22:52.714Z,99.90
2019-01-13T02:25:24.737Z,99.90
2019-01-13T02:27:54.086Z,99.90
2019-01-13T02:30:25.167Z,99.90
2019-01-13T02:32:54.733Z,99.90
2019-01-13T02:35:24.163Z,99.90
2019-01-13T02:37:53.648Z,99.90
2019-01-13T02:40:23.085Z,99.90
2019-01-13T02:42:52.424Z,99.90
2019-01-13T02:45:24.118Z,99.90
2019-01-13T02:47:53.569Z,99.90
2019-01-13T02:50:23.042Z,99.90
2019-01-13T02:52:52.467Z,99.80
2019-01-13T02:55:21.889Z,99.90
2019-01-13T02:57:51.448Z,99.80
2019-01-13T03:00:23.820Z,99.80
2019-01-13T03:02:53.188Z,99.90
2019-01-13T03:05:22.643Z,99.80
2019-01-13T03:07:51.983Z,99.80
2019-01-13T03:10:24.375Z,99.70
2019-01-13T03:12:53.915Z,99.70
2019-01-13T03:15:23.819Z,99.70
2019-01-13T03:17:53.222Z,99.60
2019-01-13T03:20:22.691Z,99.50
2019-01-13T03:22:52.153Z,99.50
2019-01-13T03:25:22.088Z,99.30
2019-01-13T03:27:51.534Z,99.30
2019-01-13T03:30:22.605Z,99.20
2019-01-13T03:32:52.165Z,99.30
2019-01-13T03:35:21.526Z,99.10
2019-01-13T03:37:50.974Z,99.10
2019-01-13T03:40:22.109Z,99.10
2019-01-13T03:42:51.545Z,99.10
2019-01-13T03:45:20.935Z,99.10
2019-01-13T03:47:50.469Z,99.10
2019-01-13T03:50:21.428Z,99.00
2019-01-13T03:52:53.081Z,98.80
2019-01-13T03:55:22.810Z,98.80
2019-01-13T03:57:53.226Z,98.70
2019-01-13T04:00:24.019Z,98.70
2019-01-13T04:02:53.410Z,98.80
2019-01-13T04:05:22.859Z,98.90
2019-01-13T04:07:52.238Z,99.00
2019-01-13T04:10:21.640Z,98.90
2019-01-13T04:12:51.022Z,98.90
2019-01-13T04:15:32.847Z,98.90
2019-01-13T04:18:02.245Z,99.00
2019-01-13T04:20:31.725Z,99.00
2019-01-13T04:23:01.070Z,99.00
2019-01-13T04:25:30.465Z,99.00
2019-01-13T04:27:59.938Z,99.00
2019-01-13T04:30:29.260Z,98.80
2019-01-13T04:32:58.729Z,98.70
2019-01-13T04:35:28.195Z,98.70
2019-01-13T04:37:57.674Z,98.70
2019-01-13T04:40:27.104Z,98.60
2019-01-13T04:42:56.543Z,98.70
2019-01-13T04:45:25.999Z,98.80
2019-01-13T04:47:55.436Z,98.90
2019-01-13T04:50:24.804Z,99.10
2019-01-13T04:52:54.146Z,99.20
2019-01-13T04:55:23.515Z,99.10
2019-01-13T04:57:52.895Z,99.10
2019-01-13T05:00:23.126Z,99.00
2019-01-13T05:02:52.676Z,98.80
2019-01-13T05:05:22.129Z,98.60
2019-01-13T05:07:51.490Z,98.60
2019-01-13T05:10:21.792Z,98.50
2019-01-13T05:12:51.205Z,98.60
2019-01-13T05:15:20.574Z,98.70
2019-01-13T05:17:50.127Z,98.60
2019-01-13T05:20:21.202Z,98.60
2019-01-13T05:22:50.676Z,98.50
2019-01-13T05:25:20.113Z,98.40
2019-01-13T05:27:49.655Z,98.40
2019-01-13T05:30:38.622Z,98.30
2019-01-13T05:33:08.019Z,98.20
2019-01-13T05:35:37.452Z,98.20
2019-01-13T05:38:06.876Z,98.00
2019-01-13T05:40:36.164Z,98.30
2019-01-13T05:43:05.606Z,98.10
2019-01-13T05:45:35.002Z,97.80
2019-01-13T05:48:04.384Z,97.50
2019-01-13T05:50:33.876Z,97.30
2019-01-13T05:53:03.786Z,97.60
2019-01-13T05:55:33.260Z,97.30
2019-01-13T05:58:02.719Z,97.40
2019-01-13T06:00:33.468Z,97.30
2019-01-13T06:03:02.917Z,97.40
2019-01-13T06:05:32.307Z,97.10
2019-01-13T06:08:01.761Z,97.30
2019-01-13T06:10:31.068Z,97.30
2019-01-13T06:13:00.510Z,97.40
2019-01-13T06:15:29.982Z,97.40
2019-01-13T06:17:59.445Z,97.20
2019-01-13T06:20:29.001Z,97.50
2019-01-13T06:22:58.441Z,97.30
2019-01-13T06:25:27.834Z,97.10
2019-01-13T06:27:57.314Z,97.20
2019-01-13T06:30:26.642Z,97.30
2019-01-13T06:32:56.169Z,97.30
2019-01-13T06:35:25.615Z,97.20
2019-01-13T06:37:55.029Z,97.30
2019-01-13T06:40:24.602Z,97.80
2019-01-13T06:42:54.469Z,97.30
2019-01-13T06:45:24.350Z,97.30
2019-01-13T06:47:54.334Z,97.50
2019-01-13T06:50:23.902Z,97.40
2019-01-13T06:52:53.377Z,97.30
2019-01-13T06:55:22.857Z,97.50
2019-01-13T06:57:52.158Z,97.40
2019-01-13T07:00:23.928Z,97.50
2019-01-13T07:02:53.373Z,97.30
2019-01-13T07:05:22.819Z,97.10
2019-01-13T07:07:52.134Z,97.20
2019-01-13T07:10:21.446Z,97.10
2019-01-13T07:12:50.786Z,97.10
2019-01-13T07:15:20.318Z,97.10
2019-01-13T07:17:49.658Z,97.10
2019-01-13T07:20:19.495Z,97.00
2019-01-13T07:22:49.038Z,96.70
2019-01-13T07:25:18.370Z,96.80
2019-01-13T07:27:47.755Z,96.60
2019-01-13T07:30:19.163Z,96.80
2019-01-13T07:32:48.708Z,96.80
2019-01-13T07:35:19.960Z,96.80
2019-01-13T07:37:49.301Z,96.70
2019-01-13T07:40:19.926Z,96.80
2019-01-13T07:42:49.277Z,96.90
2019-01-13T07:45:20.703Z,97.10
2019-01-13T07:47:51.673Z,96.80
2019-01-13T07:50:21.046Z,97.00
2019-01-13T07:52:50.568Z,96.90
2019-01-13T07:55:20.759Z,96.90
2019-01-13T07:57:51.347Z,96.80
2019-01-13T08:00:23.429Z,96.80
2019-01-13T08:02:52.838Z,96.50
2019-01-13T08:05:23.200Z,96.60
2019-01-13T08:07:53.802Z,96.80
2019-01-13T08:10:23.186Z,96.90
2019-01-13T08:12:52.762Z,96.90
2019-01-13T08:15:22.235Z,96.90
2019-01-13T08:17:51.549Z,97.10
2019-01-13T08:20:25.828Z,97.30
2019-01-13T08:22:55.225Z,97.40
2019-01-13T08:25:24.780Z,97.80
2019-01-13T08:27:54.635Z,97.80
2019-01-13T08:30:24.076Z,97.60
2019-01-13T08:32:54.187Z,97.50
2019-01-13T08:35:27.524Z,97.30
2019-01-13T08:37:59.644Z,97.00
2019-01-13T08:40:32.648Z,97.00
2019-01-13T08:43:04.388Z,97.10
2019-01-13T08:45:34.300Z,97.00
2019-01-13T08:48:04.233Z,97.30
2019-01-13T08:50:34.043Z,96.90
2019-01-13T08:53:03.804Z,96.80
2019-01-13T08:55:33.966Z,97.00
2019-01-13T08:58:03.890Z,96.70
2019-01-13T09:00:33.932Z,96.80
2019-01-13T09:03:03.860Z,96.60
2019-01-13T09:05:33.806Z,96.60
2019-01-13T09:08:04.678Z,96.60
2019-01-13T09:10:34.600Z,96.50
2019-01-13T09:13:04.595Z,96.60
2019-01-13T09:15:34.381Z,96.50
2019-01-13T09:18:04.194Z,96.50
2019-01-13T09:20:33.622Z,96.60
2019-01-13T09:23:03.036Z,96.60
2019-01-13T09:25:32.457Z,96.70
2019-01-13T09:28:03.469Z,97.10
2019-01-13T09:30:32.929Z,97.50
2019-01-13T09:33:02.470Z,97.30
2019-01-13T09:35:31.932Z,97.40
2019-01-13T09:38:01.341Z,97.60
2019-01-13T09:40:30.649Z,97.20
2019-01-13T09:43:00.066Z,97.30
2019-01-13T09:45:29.709Z,97.30
2019-01-13T09:47:59.172Z,97.50
2019-01-13T09:50:28.607Z,97.30
2019-01-13T09:52:57.933Z,97.20
2019-01-13T09:55:27.497Z,97.50
2019-01-13T09:57:56.888Z,97.10
2019-01-13T10:00:31.520Z,96.80
2019-01-13T10:03:00.836Z,97.00
2019-01-13T10:05:30.226Z,96.80
2019-01-13T10:07:59.663Z,96.90
2019-01-13T10:10:28.989Z,96.90
2019-01-13T10:12:58.963Z,97.00
2019-01-13T10:15:31.592Z,96.90
2019-01-13T10:18:02.500Z,97.10
2019-01-13T10:20:32.558Z,96.80
2019-01-13T10:23:02.079Z,96.90
2019-01-13T10:25:31.360Z,96.90
2019-01-13T10:28:00.698Z,96.70
2019-01-13T10:30:30.631Z,96.70
2019-01-13T10:32:59.971Z,96.70
2019-01-13T10:35:29.416Z,96.80
2019-01-13T10:37:58.700Z,96.70
2019-01-13T10:40:28.638Z,96.80
2019-01-13T10:42:58.122Z,96.80
2019-01-13T10:45:27.792Z,96.60
2019-01-13T10:47:59.442Z,96.60
2019-01-13T10:50:30.586Z,96.70
2019-01-13T10:53:01.551Z,96.90
2019-01-13T10:55:31.198Z,96.90
2019-01-13T10:58:03.340Z,97.10
2019-01-13T11:00:34.549Z,97.40
2019-01-13T11:03:03.834Z,97.10
2019-01-13T11:05:33.480Z,97.00
2019-01-13T11:08:03.037Z,96.80
2019-01-13T11:10:32.351Z,96.70
2019-01-13T11:13:01.823Z,96.70
2019-01-13T11:15:31.188Z,96.40
2019-01-13T11:18:00.682Z,96.60
2019-01-13T11:20:32.764Z,96.60
2019-01-13T11:23:02.405Z,96.60
2019-01-13T11:25:32.010Z,96.40
2019-01-13T11:28:01.511Z,96.80
2019-01-13T11:30:30.854Z,96.70
2019-01-13T11:33:00.273Z,96.70
2019-01-13T11:35:29.643Z,97.00
2019-01-13T11:37:59.165Z,97.40
2019-01-13T11:40:28.607Z,97.50
2019-01-13T11:42:57.910Z,97.50
2019-01-13T11:45:27.253Z,97.80
2019-01-13T11:47:56.527Z,97.80
2019-01-13T11:50:26.530Z,97.70
2019-01-13T11:52:57.059Z,98.30
2019-01-13T11:55:26.529Z,97.90
2019-01-13T11:57:55.872Z,98.00
2019-01-13T12:00:28.188Z,97.90
2019-01-13T12:02:57.503Z,97.90
2019-01-13T12:05:26.809Z,97.80
2019-01-13T12:07:56.112Z,98.10
2019-01-13T12:10:26.514Z,98.30
2019-01-13T12:12:55.811Z,98.40
2019-01-13T12:15:25.141Z,98.40
2019-01-13T12:17:54.501Z,98.60
2019-01-13T12:20:25.518Z,98.60
2019-01-13T12:22:54.919Z,98.80
2019-01-13T12:25:24.479Z,98.60
2019-01-13T12:27:54.169Z,98.60
2019-01-13T12:30:28.981Z,98.90
2019-01-13T12:32:58.719Z,99.00
2019-01-13T12:35:28.180Z,98.80
2019-01-13T12:37:57.570Z,99.00
2019-01-13T12:40:29.698Z,98.90
2019-01-13T12:42:59.057Z,98.90
2019-01-13T12:45:28.489Z,98.90
2019-01-13T12:47:57.933Z,98.70
2019-01-13T12:50:29.343Z,99.00
2019-01-13T12:52:58.899Z,98.80
2019-01-13T12:55:28.397Z,98.60
2019-01-13T12:57:57.800Z,98.50
2019-01-13T13:00:27.279Z,98.30
2019-01-13T13:02:57.620Z,98.30
2019-01-13T13:05:28.298Z,98.40
2019-01-13T13:07:57.658Z,99.00
2019-01-13T13:10:38.499Z,98.80
2019-01-13T13:13:08.684Z,98.90
2019-01-13T13:15:38.143Z,99.00
2019-01-13T13:18:07.482Z,99.00
2019-01-13T13:20:36.899Z,99.20
2019-01-13T13:23:06.468Z,99.20
2019-01-13T13:25:35.918Z,99.40
2019-01-13T13:28:05.362Z,99.40
2019-01-13T13:30:34.742Z,99.40
2019-01-13T13:33:04.144Z,99.70
2019-01-13T13:35:39.735Z,99.80
2019-01-13T13:38:04.395Z,99.80
2019-01-13T13:40:33.767Z,99.80
2019-01-13T13:43:03.163Z,99.50
2019-01-13T13:45:32.447Z,99.40
2019-01-13T13:48:01.785Z,99.50
2019-01-13T13:50:31.087Z,99.40
2019-01-13T13:53:00.368Z,99.30
2019-01-13T13:55:29.825Z,99.60
2019-01-13T13:57:59.226Z,99.80
2019-01-13T14:00:30.257Z,99.90
2019-01-13T14:02:59.581Z,99.90
2019-01-13T14:05:29.099Z,99.90
2019-01-13T14:07:59.377Z,99.90
2019-01-13T14:10:36.011Z,99.90
2019-01-13T14:13:05.955Z,99.90
2019-01-13T14:15:35.242Z,99.90
2019-01-13T14:18:06.436Z,99.90
2019-01-13T14:20:35.932Z,99.90
2019-01-13T14:23:05.347Z,99.90
2019-01-13T14:25:34.707Z,99.90
2019-01-13T14:28:04.141Z,99.90
2019-01-13T14:30:35.743Z,99.90
2019-01-13T14:33:06.233Z,99.90
2019-01-13T14:35:35.680Z,99.90
2019-01-13T14:38:07.337Z,99.90
2019-01-13T14:40:37.606Z,99.90
2019-01-13T14:43:07.049Z,99.90
2019-01-13T14:45:38.367Z,99.90
2019-01-13T14:48:08.228Z,99.90
2019-01-13T14:50:39.842Z,99.90
2019-01-13T14:53:09.494Z,99.90
2019-01-13T14:55:38.886Z,99.90
2019-01-13T14:58:08.326Z,99.90
2019-01-13T15:00:37.988Z,99.90
2019-01-13T15:03:07.485Z,99.90
2019-01-13T15:05:36.786Z,99.90
2019-01-13T15:08:06.107Z,99.90
2019-01-13T15:10:35.391Z,99.90
2019-01-13T15:13:04.720Z,99.90
2019-01-13T15:15:34.127Z,99.90
2019-01-13T15:18:03.473Z,99.90
2019-01-13T15:20:32.802Z,99.90
2019-01-13T15:23:02.186Z,99.90
2019-01-13T15:25:31.753Z,99.90
2019-01-13T15:28:01.093Z,99.90
2019-01-13T15:30:32.700Z,99.90
2019-01-13T15:33:02.154Z,99.90
2019-01-13T15:35:31.518Z,99.90
2019-01-13T15:38:00.838Z,99.90
2019-01-13T15:40:30.302Z,99.90
2019-01-13T15:42:59.614Z,99.90
2019-01-13T15:45:28.951Z,99.90
2019-01-13T15:47:58.498Z,99.90
2019-01-13T15:50:29.282Z,99.90
2019-01-13T15:52:58.668Z,99.90
2019-01-13T15:55:28.130Z,99.90
2019-01-13T15:57:59.306Z,99.90
2019-01-13T16:00:31.403Z,99.90
2019-01-13T16:03:01.073Z,99.90
2019-01-13T16:05:31.775Z,99.90
2019-01-13T16:08:01.471Z,99.90
2019-01-13T16:10:31.063Z,99.90
2019-01-13T16:13:00.606Z,99.90
2019-01-13T16:15:34.437Z,99.90
2019-01-13T16:18:02.014Z,99.90
2019-01-13T16:20:37.252Z,99.90
2019-01-13T16:23:08.829Z,99.90
2019-01-13T16:25:38.349Z,99.90
2019-01-13T16:28:10.568Z,99.90
2019-01-13T16:30:40.440Z,99.90
2019-01-13T16:33:10.206Z,99.90
2019-01-13T16:35:41.029Z,99.90
2019-01-13T16:38:10.537Z,99.90
2019-01-13T16:40:39.883Z,99.90
2019-01-13T16:43:09.435Z,99.90
2019-01-13T16:45:39.049Z,99.90
2019-01-13T16:48:08.618Z,99.90
2019-01-13T16:50:38.109Z,99.90
2019-01-13T16:53:07.481Z,99.90
2019-01-13T16:55:36.939Z,99.90
2019-01-13T16:58:06.435Z,99.90
2019-01-13T17:00:36.087Z,99.90
2019-01-13T17:03:05.819Z,99.90
2019-01-13T17:05:37.855Z,99.90
2019-01-13T17:08:07.354Z,99.90
2019-01-13T17:10:38.506Z,99.90
2019-01-13T17:13:07.882Z,99.90
2019-01-13T17:15:37.736Z,99.90
2019-01-13T17:18:07.282Z,99.90
2019-01-13T17:20:36.851Z,99.90
2019-01-13T17:23:06.257Z,99.90
2019-01-13T17:25:35.759Z,99.90
2019-01-13T17:28:07.040Z,99.90
2019-01-13T17:30:37.915Z,99.90
2019-01-13T17:33:07.432Z,99.90
2019-01-13T17:35:36.723Z,99.90
2019-01-13T17:38:06.148Z,99.90
2019-01-13T17:40:35.802Z,99.90
2019-01-13T17:43:05.286Z,99.90
2019-01-13T17:45:34.848Z,99.90
2019-01-13T17:48:04.479Z,99.90
2019-01-13T17:50:33.865Z,99.90
2019-01-13T17:53:03.548Z,99.90
2019-01-13T17:55:32.808Z,99.90
2019-01-13T17:58:02.195Z,99.90
2019-01-13T18:00:43.853Z,99.90
2019-01-13T18:03:16.511Z,99.90
2019-01-13T18:05:45.852Z,99.90
2019-01-13T18:08:15.251Z,99.90
2019-01-13T18:10:44.790Z,99.90
2019-01-13T18:13:14.250Z,99.90
2019-01-13T18:15:43.568Z,99.90
2019-01-13T18:18:12.970Z,99.90
2019-01-13T18:20:42.344Z,99.90
2019-01-13T18:23:11.833Z,99.90
2019-01-13T18:25:41.253Z,99.90
2019-01-13T18:28:10.637Z,99.90
2019-01-13T18:30:40.030Z,99.90
2019-01-13T18:33:09.502Z,99.90
2019-01-13T18:35:38.895Z,99.90
2019-01-13T18:38:08.180Z,99.90
2019-01-13T18:40:38.187Z,99.90
2019-01-13T18:43:08.327Z,99.90
2019-01-13T18:45:38.021Z,99.90
2019-01-13T18:48:08.551Z,99.90
2019-01-13T18:50:37.999Z,99.90
2019-01-13T18:53:10.381Z,99.90
2019-01-13T18:55:40.128Z,99.90
2019-01-13T18:58:09.762Z,99.90
2019-01-13T19:00:39.462Z,99.90
2019-01-13T19:03:08.799Z,99.90
2019-01-13T19:05:38.190Z,99.90
2019-01-13T19:08:07.626Z,99.90
2019-01-13T19:10:49.181Z,99.90
2019-01-13T19:13:27.452Z,99.90
2019-01-13T19:15:58.516Z,99.90
2019-01-13T19:18:28.106Z,99.90
2019-01-13T19:20:57.967Z,99.90
2019-01-13T19:23:29.402Z,99.90
2019-01-13T19:25:58.851Z,99.90
2019-01-13T19:28:28.182Z,99.90
2019-01-13T19:30:57.523Z,99.90
2019-01-13T19:33:26.949Z,99.90
2019-01-13T19:35:56.315Z,99.90
2019-01-13T19:38:25.696Z,99.90
2019-01-13T19:40:55.094Z,99.90
2019-01-13T19:43:24.578Z,99.90
2019-01-13T19:45:54.081Z,99.90
2019-01-13T19:48:23.407Z,99.90
2019-01-13T19:50:52.686Z,99.90
2019-01-13T19:53:22.088Z,99.90
2019-01-13T19:55:51.406Z,99.90
2019-01-13T19:58:20.834Z,99.90
2019-01-13T20:00:50.275Z,99.90
2019-01-13T20:03:19.587Z,99.90
2019-01-13T20:05:48.947Z,99.90
2019-01-13T20:08:18.441Z,99.90
2019-01-13T20:10:47.894Z,99.90
2019-01-13T20:13:17.264Z,99.90
2019-01-13T20:15:46.636Z,99.90
2019-01-13T20:18:15.974Z,99.90
2019-01-13T20:20:45.307Z,99.90
2019-01-13T20:23:14.587Z,99.90
2019-01-13T20:25:43.907Z,99.90
2019-01-13T20:28:13.215Z,99.90
2019-01-13T20:30:42.510Z,99.90
2019-01-13T20:33:11.824Z,99.90
2019-01-13T20:35:41.564Z,99.90
2019-01-13T20:38:10.963Z,99.30
2019-01-13T20:40:42.317Z,99.60
2019-01-13T20:43:12.032Z,99.60
2019-01-13T20:45:41.499Z,99.10
2019-01-13T20:48:10.982Z,99.20
2019-01-13T20:50:40.439Z,99.10
2019-01-13T20:53:09.886Z,99.60
2019-01-13T20:55:39.222Z,99.60
2019-01-13T20:58:08.542Z,98.90
2019-01-13T21:00:37.955Z,98.50
2019-01-13T21:03:07.354Z,98.60
2019-01-13T21:05:36.818Z,98.70
2019-01-13T21:08:06.123Z,98.70
2019-01-13T21:10:35.407Z,98.40
2019-01-13T21:13:04.809Z,98.80
2019-01-13T21:15:36.046Z,98.70
2019-01-13T21:18:05.352Z,98.50
2019-01-13T21:20:34.637Z,98.80
2019-01-13T21:23:03.937Z,98.70
2019-01-13T21:25:33.283Z,98.70
2019-01-13T21:28:03.048Z,98.70
2019-01-13T21:30:33.625Z,98.80
2019-01-13T21:33:03.011Z,98.60
2019-01-13T21:35:34.241Z,98.70
2019-01-13T21:38:04.854Z,98.50
2019-01-13T21:40:34.160Z,98.70
2019-01-13T21:43:03.470Z,98.60
2019-01-13T21:45:32.752Z,98.60
2019-01-13T21:48:02.082Z,98.70
2019-01-13T21:50:31.385Z,98.70
2019-01-13T21:53:00.735Z,98.50
2019-01-13T21:55:29.999Z,98.40
2019-01-13T21:57:59.331Z,98.60
2019-01-13T22:00:28.665Z,98.20
2019-01-13T22:02:58.075Z,98.00
2019-01-13T22:05:27.356Z,98.10
2019-01-13T22:07:56.765Z,98.10
2019-01-13T22:10:26.043Z,98.00
2019-01-13T22:12:55.374Z,98.10
2019-01-13T22:15:24.687Z,98.20
2019-01-13T22:17:54.011Z,98.40
2019-01-13T22:20:23.689Z,98.40
2019-01-13T22:22:53.654Z,98.50
2019-01-13T22:25:22.955Z,98.60
2019-01-13T22:27:52.280Z,98.30
2019-01-13T22:30:22.973Z,98.60
2019-01-13T22:32:52.390Z,98.50
2019-01-13T22:35:21.694Z,97.90
2019-01-13T22:37:55.571Z,98.00
2019-01-13T22:40:21.924Z,98.00
2019-01-13T22:42:51.231Z,98.00
2019-01-13T22:45:22.474Z,97.60
2019-01-13T22:47:51.783Z,97.60
2019-01-13T22:50:21.087Z,97.80
2019-01-13T22:52:50.396Z,97.80
2019-01-13T22:55:19.740Z,97.90
2019-01-13T22:57:49.082Z,98.00
2019-01-13T23:00:50.189Z,97.60
2019-01-13T23:03:20.327Z,97.80
2019-01-13T23:05:55.571Z,97.60
2019-01-13T23:08:20.600Z,97.90
2019-01-13T23:10:49.886Z,97.60
2019-01-13T23:13:19.198Z,97.40
2019-01-13T23:15:48.528Z,97.50
2019-01-13T23:18:17.814Z,97.50
2019-01-13T23:20:47.123Z,97.10
2019-01-13T23:23:17.540Z,97.00
2019-01-13T23:25:48.050Z,97.10
2019-01-13T23:28:17.425Z,96.80
2019-01-13T23:30:46.754Z,96.80
2019-01-13T23:33:16.042Z,96.70
2019-01-13T23:35:45.372Z,96.50
2019-01-13T23:38:14.642Z,96.70
2019-01-13T23:40:43.970Z,96.70
2019-01-13T23:43:13.349Z,97.00
2019-01-13T23:45:42.668Z,96.60
2019-01-13T23:48:12.044Z,96.30
2019-01-13T23:50:41.380Z,96.40
2019-01-13T23:53:10.878Z,96.50
2019-01-13T23:55:40.151Z,96.60
2019-01-13T23:58:09.475Z,96.60
